Time;durP1;ratioP1;P1;durP2;ratioP2;P2;SDS_P1;SDS_P2;PMS_P1;PMS_P2;Temp;Humidity;BMP_temperature;BMP_pressure;BME280_temperature;BME280_humidity;BME280_pressure;Samples;Min_cycle;Max_cycle;Signal;HPM_P1;HPM_P2
2022/08/19 00:02:23;;;;;;;16.02;9.35;;;;;;;23.32;77.71;100066.91;4999479;28;20042;-72
2022/08/19 00:04:52;;;;;;;12.07;9.82;;;;;;;23.76;77.74;100141.16;4984911;28;20406;-72
2022/08/19 00:07:19;;;;;;;15.38;9.20;;;;;;;23.79;77.94;100140.09;4984504;28;20052;-73
2022/08/19 00:09:44;;;;;;;11.18;8.27;;;;;;;23.76;78.10;100141.16;4991997;28;20133;-73
2022/08/19 00:12:10;;;;;;;12.38;8.88;;;;;;;23.70;78.44;100143.28;4997384;28;20046;-71
2022/08/19 00:14:37;;;;;;;11.35;9.00;;;;;;;23.58;77.84;100134.16;4983087;28;20510;-72
2022/08/19 00:17:06;;;;;;;12.73;10.30;;;;;;;23.01;76.87;100054.41;4996659;28;20499;-71
2022/08/19 00:19:32;;;;;;;15.68;10.65;;;;;;;23.33;77.32;100111.47;5000402;28;20065;-73
2022/08/19 00:21:57;;;;;;;16.05;11.05;;;;;;;23.19;76.20;100055.19;4980043;28;20133;-72
2022/08/19 00:24:25;;;;;;;15.90;11.30;;;;;;;23.61;76.77;100142.00;4981198;28;20458;-71
2022/08/19 00:26:51;;;;;;;15.48;10.02;;;;;;;23.21;76.80;100069.34;5033319;28;20489;-74
2022/08/19 00:29:21;;;;;;;19.55;10.60;;;;;;;23.07;77.41;100058.56;5020659;28;20112;-72
2022/08/19 00:31:47;;;;;;;15.07;10.80;;;;;;;23.21;77.05;100077.38;5016760;28;20068;-73
2022/08/19 00:34:14;;;;;;;14.02;10.25;;;;;;;23.65;78.76;100161.41;5021532;28;20055;-72
2022/08/19 00:36:46;;;;;;;11.65;9.65;;;;;;;22.94;78.75;100063.72;4986935;28;20988;-74
2022/08/19 00:39:15;;;;;;;15.07;10.57;;;;;;;22.97;79.52;100085.84;4988158;28;20050;-73
2022/08/19 00:41:42;;;;;;;12.50;9.57;;;;;;;23.48;79.76;100173.97;4968466;28;20113;-72
2022/08/19 00:44:14;;;;;;;11.90;9.85;;;;;;;22.70;80.36;100056.13;4984621;28;20125;-74
2022/08/19 00:46:43;;;;;;;28.50;11.07;;;;;;;23.26;81.17;100176.19;4987665;28;20048;-74
2022/08/19 00:49:20;;;;;;;12.73;9.38;;;;;;;23.38;78.32;100173.66;4968147;28;21245;-74
2022/08/19 00:51:50;;;;;;;16.30;10.88;;;;;;;23.01;77.80;100086.53;4967810;28;20053;-71
2022/08/19 00:54:16;;;;;;;12.55;9.48;;;;;;;23.46;78.52;100161.63;4985646;28;20058;-73
2022/08/19 00:56:43;;;;;;;13.27;10.63;;;;;;;23.17;79.65;100124.00;4984782;28;20047;-72
2022/08/19 00:59:09;;;;;;;15.15;10.32;;;;;;;23.34;80.20;100164.09;4982942;28;20502;-71
2022/08/19 01:01:37;;;;;;;12.32;10.07;;;;;;;22.82;80.88;100101.88;4984592;28;20038;-73
2022/08/19 01:04:03;;;;;;;11.48;9.70;;;;;;;23.24;80.53;100176.25;4983661;28;20101;-72
2022/08/19 01:06:32;;;;;;;15.38;10.80;;;;;;;22.46;81.27;100057.50;4982245;28;20443;-72
2022/08/19 01:08:59;;;;;;;13.13;9.88;;;;;;;23.08;81.58;100167.34;4966435;28;20060;-73
2022/08/19 01:11:26;;;;;;;14.90;10.43;;;;;;;23.06;81.76;100174.59;4979622;28;20046;-74
2022/08/19 01:13:53;;;;;;;11.73;10.50;;;;;;;22.97;82.06;100170.59;4982092;28;20053;-74
2022/08/19 01:16:21;;;;;;;12.85;10.98;;;;;;;22.54;82.25;100087.34;4967313;28;20036;-72
2022/08/19 01:18:48;;;;;;;14.88;9.52;;;;;;;22.84;82.01;100153.50;4963943;28;20093;-74
2022/08/19 01:21:30;;;;;;;10.98;9.52;;;;;;;22.42;82.06;100075.53;4965665;28;20647;-72
2022/08/19 01:23:56;;;;;;;14.60;9.60;;;;;;;22.96;82.26;100166.19;4985503;28;20057;-74
2022/08/19 01:26:24;;;;;;;11.07;9.48;;;;;;;22.89;82.57;100162.97;4983111;28;20907;-73
2022/08/19 01:28:53;;;;;;;19.35;11.30;;;;;;;22.39;82.75;100090.88;4997805;28;20382;-72
2022/08/19 01:31:24;;;;;;;16.23;9.18;;;;;;;22.65;82.26;100116.19;4987175;28;20184;-72
2022/08/19 01:33:52;;;;;;;19.58;12.13;;;;;;;22.49;80.15;100084.94;4986070;28;20073;-73
2022/08/19 01:36:32;;;;;;;15.13;11.20;;;;;;;23.26;78.84;100177.03;4968627;28;20133;-74
2022/08/19 01:38:59;;;;;;;14.88;9.80;;;;;;;22.90;78.29;100094.31;4998796;28;20057;-73
2022/08/19 01:41:25;;;;;;;16.40;11.73;;;;;;;23.27;78.24;100176.09;4999141;28;20104;-74
2022/08/19 01:43:52;;;;;;;16.10;11.43;;;;;;;23.31;78.28;100180.31;4982089;28;20092;-72
2022/08/19 01:46:20;;;;;;;15.80;12.70;;;;;;;23.26;78.33;100174.34;4981608;28;20067;-73
2022/08/19 01:48:46;;;;;;;17.17;11.65;;;;;;;23.18;80.78;100171.25;4999577;28;20045;-72
2022/08/19 01:51:12;;;;;;;16.58;10.63;;;;;;;22.66;82.45;100104.53;4986774;28;20050;-73
2022/08/19 01:53:38;;;;;;;15.90;10.85;;;;;;;22.65;83.05;100121.53;4992005;28;20053;-73
2022/08/19 01:56:04;;;;;;;17.90;10.85;;;;;;;22.83;83.61;100179.41;4986950;28;20394;-73
2022/08/19 01:58:36;;;;;;;13.77;10.95;;;;;;;22.73;83.41;100168.34;4981922;28;20061;-75
2022/08/19 02:01:03;;;;;;;16.65;11.07;;;;;;;22.92;83.43;100192.28;4997466;28;20042;-74
2022/08/19 02:03:29;;;;;;;13.57;10.68;;;;;;;22.46;82.91;100090.47;4981031;28;20054;-73
2022/08/19 02:05:57;;;;;;;19.65;11.38;;;;;;;22.89;83.88;100195.09;4988067;28;20075;-75
2022/08/19 02:08:23;;;;;;;18.15;11.32;;;;;;;22.49;83.42;100134.88;4965531;28;20046;-73
2022/08/19 02:10:49;;;;;;;23.77;10.63;;;;;;;22.33;83.11;100089.38;4998970;28;20048;-72
2022/08/19 02:13:15;;;;;;;14.57;10.32;;;;;;;22.92;82.48;100194.06;4968897;28;20052;-73
2022/08/19 02:15:41;;;;;;;19.42;10.55;;;;;;;22.31;81.40;100100.19;4983845;28;20426;-74
2022/08/19 02:18:07;;;;;;;11.13;9.80;;;;;;;22.99;80.80;100194.63;5020104;28;20575;-72
2022/08/19 02:20:33;;;;;;;13.32;9.13;;;;;;;23.02;80.02;100195.34;5019681;28;20037;-72
2022/08/19 02:23:00;;;;;;;15.38;11.23;;;;;;;22.81;80.78;100167.91;5018276;28;20072;-72
2022/08/19 02:25:27;;;;;;;15.38;11.10;;;;;;;22.61;80.65;100133.34;5017735;28;20148;-72
2022/08/19 02:27:53;;;;;;;22.88;10.93;;;;;;;22.54;80.17;100125.66;5019515;28;20144;-73
2022/08/19 02:30:20;;;;;;;12.73;10.55;;;;;;;22.73;81.06;100195.09;5019459;28;21003;-72
2022/08/19 02:32:45;;;;;;;15.18;10.98;;;;;;;22.28;81.66;100104.81;5018913;28;20251;-74
2022/08/19 02:35:13;;;;;;;16.10;10.75;;;;;;;22.88;81.37;100196.06;5020903;28;20021;-70
2022/08/19 02:40:23;;;;;;;13.43;10.32;;;;;;;22.74;82.55;100186.09;4988861;28;20053;-73
2022/08/19 02:42:49;;;;;;;13.68;10.65;;;;;;;22.73;81.39;100189.75;4993696;28;20046;-74
2022/08/19 02:45:16;;;;;;;18.17;12.05;;;;;;;22.37;81.86;100135.53;4998138;28;20088;-72
2022/08/19 02:47:42;;;;;;;13.82;10.27;;;;;;;22.17;82.60;100124.03;5000293;28;20041;-72
2022/08/19 02:50:09;;;;;;;14.13;11.05;;;;;;;22.14;83.04;100116.19;4985003;28;20319;-73
2022/08/19 02:52:35;;;;;;;15.70;11.60;;;;;;;22.26;83.47;100149.47;4998612;28;20054;-74
2022/08/19 02:55:01;;;;;;;20.88;10.55;;;;;;;22.59;83.31;100191.41;4991038;28;20059;-73
2022/08/19 02:57:26;;;;;;;15.77;10.75;;;;;;;22.50;84.00;100201.66;4975174;28;20453;-74
2022/08/19 02:59:53;;;;;;;16.77;11.00;;;;;;;22.32;84.00;100171.41;4997644;28;20037;-72
2022/08/19 03:02:18;;;;;;;16.83;10.25;;;;;;;22.57;84.52;100210.22;4997718;28;20044;-73
2022/08/19 03:04:44;;;;;;;13.68;12.05;;;;;;;22.34;81.53;100169.50;4999024;28;20049;-73
2022/08/19 03:07:13;;;;;;;14.57;11.68;;;;;;;22.76;81.73;100210.97;4996181;28;20560;-71
2022/08/19 03:09:39;;;;;;;16.63;12.27;;;;;;;22.04;82.71;100109.63;4982549;28;20073;-71
2022/08/19 03:12:11;;;;;;;20.52;13.38;;;;;;;22.49;83.80;100212.44;4985548;28;20044;-73
2022/08/19 03:14:37;;;;;;;21.30;12.52;;;;;;;22.54;83.51;100199.66;4985505;28;20022;-72
2022/08/19 03:17:04;;;;;;;17.58;12.02;;;;;;;21.89;84.38;100100.56;5002952;28;20093;-73
2022/08/19 03:19:31;;;;;;;15.55;11.98;;;;;;;22.48;83.09;100200.00;4999681;28;20054;-75
2022/08/19 03:21:57;;;;;;;17.52;11.07;;;;;;;22.58;82.14;100211.09;5003774;28;20076;-74
2022/08/19 03:24:23;;;;;;;17.75;11.05;;;;;;;22.19;81.16;100119.50;4983817;28;20406;-71
2022/08/19 03:26:58;;;;;;;14.57;10.82;;;;;;;22.72;81.30;100212.06;5002042;28;20056;-72
2022/08/19 03:29:26;;;;;;;17.85;10.57;;;;;;;22.62;80.74;100199.28;5000687;28;20153;-72
2022/08/19 03:31:52;;;;;;;27.52;12.07;;;;;;;22.11;80.20;100116.38;5000346;28;20044;-73
2022/08/19 03:34:27;;;;;;;15.85;11.35;;;;;;;22.26;80.52;100134.28;4984398;28;20039;-71
2022/08/19 03:36:57;;;;;;;18.10;12.32;;;;;;;22.65;80.49;100202.66;4993881;28;20128;-71
2022/08/19 03:39:24;;;;;;;21.35;11.10;;;;;;;22.44;81.06;100180.59;4985584;28;20042;-71
2022/08/19 03:41:52;;;;;;;18.60;12.10;;;;;;;22.67;80.80;100214.13;4963938;28;20149;-72
2022/08/19 03:44:23;;;;;;;18.45;12.30;;;;;;;22.29;81.56;100154.69;4982016;28;20184;-73
2022/08/19 03:46:52;;;;;;;11.93;10.35;;;;;;;22.00;80.85;100121.41;4971200;28;20121;-72
2022/08/19 03:49:19;;;;;;;13.70;9.93;;;;;;;22.13;79.22;100135.88;4982137;28;20057;-72
2022/08/19 03:51:46;;;;;;;17.40;11.15;;;;;;;22.71;79.18;100226.41;4964791;28;20143;-75
2022/08/19 03:54:14;;;;;;;14.75;10.57;;;;;;;22.54;80.63;100221.06;4934360;28;20030;-72
2022/08/19 03:56:43;;;;;;;16.52;9.35;;;;;;;22.27;80.46;100168.09;4964870;28;20227;-75
2022/08/19 03:59:13;;;;;;;14.88;11.55;;;;;;;22.79;79.66;100230.47;4982692;28;20049;-72
2022/08/19 04:01:39;;;;;;;10.68;9.27;;;;;;;22.83;79.43;100245.41;4979040;28;20042;-72
2022/08/19 04:04:05;;;;;;;18.00;10.90;;;;;;;22.27;79.78;100204.69;4979639;28;20069;-73
2022/08/19 04:06:34;;;;;;;16.88;11.60;;;;;;;22.19;79.51;100167.59;4963913;28;20057;-74
2022/08/19 04:09:02;;;;;;;17.63;10.68;;;;;;;22.31;78.65;100171.47;4965870;28;20045;-72
2022/08/19 04:11:35;;;;;;;14.40;10.23;;;;;;;22.58;79.60;100240.50;4980957;28;20046;-72
2022/08/19 04:14:01;;;;;;;15.93;10.80;;;;;;;22.71;78.25;100231.75;4978920;28;20495;-73
2022/08/19 04:16:34;;;;;;;15.85;10.45;;;;;;;22.45;78.35;100173.41;4984266;28;20043;-73
2022/08/19 04:19:01;;;;;;;30.00;12.15;;;;;;;22.30;78.37;100175.09;4982691;28;20047;-72
2022/08/19 04:21:28;;;;;;;18.02;10.65;;;;;;;22.73;78.43;100243.25;4981329;28;20447;-74
2022/08/19 04:23:54;;;;;;;17.95;10.80;;;;;;;22.97;77.56;100238.38;4981543;28;20081;-72
2022/08/19 04:26:25;;;;;;;21.10;11.15;;;;;;;23.00;77.20;100245.41;4980609;28;20061;-72
2022/08/19 04:28:51;;;;;;;15.50;9.98;;;;;;;22.90;77.02;100228.09;4981527;28;20749;-72
2022/08/19 04:31:20;;;;;;;16.50;10.00;;;;;;;23.16;76.57;100248.97;4947647;28;20516;-72
2022/08/19 04:33:45;;;;;;;14.65;10.23;;;;;;;22.79;76.63;100215.28;4981084;28;20046;-72
2022/08/19 04:36:24;;;;;;;15.18;10.15;;;;;;;22.43;76.34;100153.91;4981521;28;20034;-72
2022/08/19 04:38:54;;;;;;;15.50;10.10;;;;;;;23.32;75.10;100253.47;4966537;28;20484;-74
2022/08/19 04:44:04;;;;;;;16.02;9.80;;;;;;;23.04;75.07;100184.53;4981220;28;20062;-72
2022/08/19 04:46:31;;;;;;;19.60;10.95;;;;;;;23.46;75.30;100234.84;4970013;28;20062;-72
2022/08/19 04:48:57;;;;;;;20.08;10.30;;;;;;;23.36;74.07;100206.81;4961885;28;20073;-73
2022/08/19 04:51:23;;;;;;;17.45;10.15;;;;;;;23.21;73.66;100195.16;4982337;28;20043;-73
2022/08/19 04:53:49;;;;;;;15.95;10.52;;;;;;;23.04;73.38;100155.09;4980284;28;20034;-72
2022/08/19 04:56:17;;;;;;;15.00;11.38;;;;;;;23.09;73.76;100139.66;4983154;28;20061;-72
2022/08/19 04:58:45;;;;;;;13.70;9.48;;;;;;;23.72;74.29;100238.69;4982153;28;20046;-72
2022/08/19 05:01:18;;;;;;;15.32;11.15;;;;;;;23.75;73.43;100240.38;4978683;28;20572;-71
2022/08/19 05:03:44;;;;;;;15.75;11.25;;;;;;;23.52;72.24;100185.41;4978360;28;20051;-72
2022/08/19 05:06:15;;;;;;;14.38;9.80;;;;;;;23.69;71.95;100179.91;4983592;28;20040;-72
2022/08/19 05:08:43;;;;;;;15.02;10.75;;;;;;;23.50;71.23;100155.16;4961965;28;20057;-71
2022/08/19 05:11:30;;;;;;;19.23;10.88;;;;;;;24.16;71.45;100255.84;4981288;28;20053;-72
2022/08/19 05:13:57;;;;;;;16.23;11.07;;;;;;;24.06;70.79;100242.13;4977961;28;20042;-72
2022/08/19 05:16:24;;;;;;;11.93;8.80;;;;;;;24.21;70.44;100264.50;4978442;28;20046;-72
2022/08/19 05:24:21;;;;;;;10.75;9.30;;;;;;;24.62;69.45;100264.69;4981497;28;20089;-71
2022/08/19 05:26:51;;;;;;;14.63;11.55;;;;;;;24.32;70.94;100245.94;4980296;28;20034;-72
2022/08/19 05:29:19;;;;;;;13.80;10.88;;;;;;;24.77;69.52;100235.19;4961579;28;20494;-74
2022/08/19 05:31:47;;;;;;;12.40;9.77;;;;;;;24.89;67.55;100196.88;4973838;28;20451;-72
2022/08/19 05:34:13;;;;;;;12.05;8.88;;;;;;;25.47;64.52;100227.19;4956295;28;20073;-72
2022/08/19 05:36:42;;;;;;;12.15;9.13;;;;;;;26.03;64.60;100264.78;4957179;28;20140;-74
2022/08/19 05:39:11;;;;;;;13.10;11.57;;;;;;;25.83;63.18;100154.03;4996362;28;20026;-73
2022/08/19 05:41:42;;;;;;;15.38;11.13;;;;;;;26.80;61.89;100256.88;4993607;28;20121;-75
2022/08/19 05:44:09;;;;;;;11.25;8.88;;;;;;;26.73;61.60;100205.28;4974078;28;20058;-75
2022/08/19 05:46:37;;;;;;;16.88;10.40;;;;;;;27.09;60.37;100211.69;4995827;28;20397;-75
2022/08/19 05:49:07;;;;;;;13.63;9.52;;;;;;;27.05;60.05;100192.22;4978707;28;20058;-72
2022/08/19 05:51:36;;;;;;;12.35;9.18;;;;;;;27.66;58.03;100256.09;4981403;28;20034;-74
2022/08/19 05:54:04;;;;;;;8.38;6.78;;;;;;;27.83;58.25;100258.41;5000120;28;20125;-73
2022/08/19 05:56:30;;;;;;;15.38;9.25;;;;;;;27.86;57.59;100255.53;4997494;28;20053;-73
2022/08/19 05:58:56;;;;;;;15.23;8.52;;;;;;;28.10;58.21;100249.25;4997535;28;20563;-73
2022/08/19 06:01:22;;;;;;;15.07;8.77;;;;;;;27.84;56.38;100159.50;4998415;28;20165;-72
2022/08/19 06:03:48;;;;;;;20.00;9.13;;;;;;;28.65;55.36;100253.09;4996420;28;20046;-72
2022/08/19 06:06:15;;;;;;;9.85;7.75;;;;;;;28.15;54.99;100160.72;4967247;28;20041;-73
2022/08/19 06:08:42;;;;;;;11.77;6.78;;;;;;;27.49;55.88;100098.31;4981940;28;20060;-72
2022/08/19 06:11:43;;;;;;;12.57;8.90;;;;;;;28.25;55.38;100195.94;5001043;28;20046;-72
2022/08/19 06:14:13;;;;;;;18.73;9.20;;;;;;;28.35;54.45;100178.03;4979898;28;20582;-73
2022/08/19 06:16:40;;;;;;;23.20;10.35;;;;;;;28.99;54.65;100242.34;4970269;28;21038;-72
2022/08/19 06:19:15;;;;;;;11.45;7.07;;;;;;;29.04;54.64;100235.56;5000013;28;20597;-72
2022/08/19 06:21:43;;;;;;;13.75;8.02;;;;;;;28.50;55.77;100197.63;4998337;28;20125;-72
2022/08/19 06:24:11;;;;;;;12.60;9.13;;;;;;;28.50;54.48;100166.06;4999300;28;20505;-73
2022/08/19 06:26:46;;;;;;;20.33;9.88;;;;;;;28.80;53.33;100191.63;4992713;28;20577;-73
2022/08/19 06:29:14;;;;;;;13.50;9.05;;;;;;;29.12;53.44;100251.19;4977879;28;20042;-72
2022/08/19 06:31:46;;;;;;;10.55;7.97;;;;;;;28.66;53.60;100159.44;4992116;28;20345;-72
2022/08/19 06:34:13;;;;;;;9.73;7.80;;;;;;;29.13;53.51;100257.50;4997383;28;20066;-72
2022/08/19 06:36:56;;;;;;;9.95;7.75;;;;;;;28.53;53.92;100170.38;4980001;28;20037;-72
2022/08/19 06:39:28;;;;;;;12.77;8.30;;;;;;;28.93;53.18;100245.53;4979489;28;20050;-72
2022/08/19 06:41:58;;;;;;;9.07;6.72;;;;;;;28.32;55.54;100162.09;4950221;28;20242;-73
2022/08/19 06:44:27;;;;;;;9.15;8.13;;;;;;;28.93;54.49;100251.78;4979513;28;20061;-73
2022/08/19 06:46:54;;;;;;;9.90;6.93;;;;;;;28.36;53.58;100180.63;4962312;28;20042;-73
2022/08/19 06:49:22;;;;;;;14.50;8.98;;;;;;;28.83;54.81;100246.25;4978375;28;20062;-73
2022/08/19 06:51:49;;;;;;;9.57;8.02;;;;;;;28.38;54.59;100172.41;4978416;28;20372;-72
2022/08/19 06:54:16;;;;;;;10.50;7.57;;;;;;;28.09;53.76;100162.03;4981113;28;20035;-72
2022/08/19 06:56:43;;;;;;;15.65;9.68;;;;;;;28.34;54.16;100196.06;4980835;28;20065;-72
2022/08/19 06:59:18;;;;;;;14.15;8.52;;;;;;;28.11;54.61;100160.06;4962032;28;20077;-73
2022/08/19 07:01:47;;;;;;;24.60;8.73;;;;;;;28.84;53.44;100257.91;4959671;28;20625;-72
2022/08/19 07:04:23;;;;;;;10.23;7.82;;;;;;;28.85;54.24;100256.09;4976004;28;20578;-72
2022/08/19 07:06:50;;;;;;;12.68;8.60;;;;;;;28.59;54.19;100251.75;4960020;28;20030;-72
2022/08/19 07:09:17;;;;;;;10.57;7.35;;;;;;;28.19;54.09;100154.09;4978641;28;20189;-72
2022/08/19 07:11:52;;;;;;;8.60;7.55;;;;;;;28.38;54.64;100184.06;4943927;28;20497;-72
2022/08/19 07:14:21;;;;;;;8.90;8.00;;;;;;;28.27;52.26;100178.63;4960687;28;20075;-72
2022/08/19 07:16:51;;;;;;;10.73;7.53;;;;;;;28.17;52.85;100148.81;4974090;28;20034;-72
2022/08/19 07:19:18;;;;;;;14.10;8.35;;;;;;;28.56;53.06;100248.41;4962276;28;20054;-73
2022/08/19 07:21:54;;;;;;;9.73;6.82;;;;;;;28.43;53.09;100208.00;4979833;28;20373;-72
2022/08/19 07:24:25;;;;;;;12.55;7.43;;;;;;;28.59;52.75;100232.00;4978885;28;20050;-71
2022/08/19 07:26:54;;;;;;;8.25;7.32;;;;;;;28.07;53.09;100155.88;4979132;28;20058;-73
2022/08/19 07:29:22;;;;;;;15.80;8.40;;;;;;;28.11;53.31;100160.06;4961691;28;20046;-72
2022/08/19 07:31:50;;;;;;;12.45;7.10;;;;;;;28.22;53.87;100171.91;4977360;28;20145;-72
2022/08/19 07:34:18;;;;;;;10.80;5.90;;;;;;;28.57;51.76;100231.25;4955558;28;20934;-75
2022/08/19 07:36:45;;;;;;;11.45;7.25;;;;;;;27.86;52.00;100136.84;4978689;28;20138;-72
2022/08/19 07:39:15;;;;;;;10.95;7.90;;;;;;;28.44;51.76;100236.69;4983976;28;20061;-72
2022/08/19 07:41:41;;;;;;;12.55;6.35;;;;;;;28.02;51.89;100181.50;4985306;28;20145;-73
2022/08/19 07:44:08;;;;;;;13.50;6.18;;;;;;;28.62;51.75;100240.69;4974717;28;20053;-72
2022/08/19 07:46:37;;;;;;;9.85;7.20;;;;;;;28.61;53.48;100220.09;4994762;28;20513;-72
2022/08/19 07:49:06;;;;;;;8.38;6.35;;;;;;;28.78;52.70;100247.59;4994976;28;20470;-73
2022/08/19 07:51:33;;;;;;;13.48;7.28;;;;;;;28.17;53.83;100156.06;4980365;28;20042;-74
2022/08/19 07:53:59;;;;;;;8.38;7.28;;;;;;;28.49;52.81;100198.59;4981104;28;20045;-73
2022/08/19 07:56:25;;;;;;;12.15;6.00;;;;;;;28.46;52.02;100178.09;4983214;28;20050;-75
2022/08/19 07:58:52;;;;;;;15.73;6.72;;;;;;;28.15;51.69;100137.28;4998232;28;20696;-71
2022/08/19 08:01:24;;;;;;;13.00;6.18;;;;;;;28.43;53.00;100170.22;4981421;28;20025;-72
2022/08/19 08:09:25;;;;;;;10.77;7.28;;;;;;;28.19;51.10;100148.72;5003133;28;20141;-72
2022/08/19 08:11:54;;;;;;;15.38;8.68;;;;;;;28.98;51.44;100230.66;5000220;28;20084;-74
2022/08/19 08:14:25;;;;;;;10.93;8.18;;;;;;;28.49;51.02;100137.34;4983268;28;20140;-72
2022/08/19 08:16:52;;;;;;;9.18;7.20;;;;;;;28.98;52.40;100221.69;4998933;28;20056;-71
2022/08/19 08:19:21;;;;;;;10.55;7.47;;;;;;;28.69;51.06;100165.47;5001201;28;20099;-72
2022/08/19 08:21:49;;;;;;;14.57;8.00;;;;;;;28.96;50.74;100199.34;4999659;28;20053;-72
2022/08/19 08:24:16;;;;;;;8.45;7.40;;;;;;;28.55;50.79;100142.25;4998852;28;20062;-71
2022/08/19 08:26:43;;;;;;;9.30;7.05;;;;;;;29.15;50.49;100214.94;4999629;28;20061;-72
2022/08/19 08:29:12;;;;;;;12.35;7.07;;;;;;;29.28;51.06;100217.53;4991500;28;20050;-72
2022/08/19 08:31:44;;;;;;;12.43;8.23;;;;;;;28.83;50.94;100146.31;4985122;28;20113;-73
2022/08/19 08:34:11;;;;;;;18.35;8.07;;;;;;;29.38;50.62;100205.81;5008835;28;20049;-72
2022/08/19 08:36:44;;;;;;;11.77;7.35;;;;;;;28.74;50.67;100130.00;4999042;28;20045;-72
2022/08/19 08:39:16;;;;;;;16.40;7.32;;;;;;;29.51;50.23;100218.34;4982917;28;20112;-73
2022/08/19 08:41:50;;;;;;;10.77;7.28;;;;;;;29.15;49.80;100152.81;4998787;28;20042;-71
2022/08/19 08:44:45;;;;;;;9.90;7.35;;;;;;;29.20;49.50;100183.03;4983270;28;20041;-72
2022/08/19 08:47:18;;;;;;;12.13;7.43;;;;;;;29.24;50.25;100154.75;4958844;28;20050;-74
2022/08/19 08:49:59;;;;;;;8.77;6.28;;;;;;;28.82;50.11;100132.91;4981867;28;20049;-73
2022/08/19 08:52:24;;;;;;;12.63;6.97;;;;;;;29.31;49.30;100209.16;5001639;28;20037;-71
2022/08/19 08:54:54;;;;;;;12.27;6.35;;;;;;;28.89;49.47;100107.13;4998980;28;20072;-74
2022/08/19 08:57:27;;;;;;;8.20;7.25;;;;;;;29.45;49.45;100169.22;4999610;28;20417;-73
2022/08/19 08:59:56;;;;;;;8.70;7.30;;;;;;;29.46;48.63;100132.22;4983001;28;20564;-73
2022/08/19 09:02:22;;;;;;;11.52;7.47;;;;;;;29.68;48.63;100207.00;4979130;28;20053;-72
2022/08/19 09:04:48;;;;;;;10.45;7.32;;;;;;;29.14;48.84;100126.78;4982756;28;20050;-73
2022/08/19 09:07:42;;;;;;;10.13;6.55;;;;;;;29.87;47.81;100200.91;4996566;28;20034;-75
2022/08/19 09:10:44;;;;;;;10.75;6.70;;;;;;;29.40;47.79;100132.72;4979300;28;20112;-72
2022/08/19 09:13:22;;;;;;;10.85;8.35;;;;;;;29.59;48.49;100118.50;4996832;28;20061;-75
2022/08/19 09:16:03;;;;;;;9.75;6.18;;;;;;;29.84;49.61;100120.88;4980970;28;20525;-72
2022/08/19 09:19:03;;;;;;;9.90;6.23;;;;;;;30.54;46.74;100202.44;4981610;28;20041;-73
2022/08/19 09:21:29;;;;;;;13.27;7.07;;;;;;;30.38;47.88;100145.19;4919230;29;20470;-74
2022/08/19 09:23:55;;;;;;;9.05;5.68;;;;;;;30.23;46.16;100118.44;4914530;28;20048;-73
2022/08/19 09:26:23;;;;;;;12.77;6.75;;;;;;;31.04;45.73;100190.84;4983467;28;20053;-73
2022/08/19 09:28:52;;;;;;;9.57;7.00;;;;;;;30.79;44.24;100146.06;4999308;28;20149;-73
2022/08/19 09:31:29;;;;;;;8.38;6.22;;;;;;;30.94;44.86;100181.84;4981599;28;20164;-74
2022/08/19 09:33:56;;;;;;;12.45;7.70;;;;;;;30.55;45.94;100100.38;4980422;28;20079;-73
2022/08/19 09:36:24;;;;;;;11.85;7.38;;;;;;;31.51;45.33;100189.28;4998432;28;20061;-73
2022/08/19 09:38:51;;;;;;;12.32;6.85;;;;;;;31.39;44.55;100125.28;4985386;28;20608;-73
2022/08/19 09:41:24;;;;;;;10.50;6.97;;;;;;;32.13;44.18;100189.03;4980565;28;20057;-73
2022/08/19 09:43:52;;;;;;;11.60;6.90;;;;;;;31.83;43.39;100147.44;4945604;28;20113;-72
2022/08/19 09:46:20;;;;;;;9.07;6.95;;;;;;;31.93;42.80;100091.28;4982138;28;20113;-73
2022/08/19 09:48:51;;;;;;;14.45;6.80;;;;;;;32.47;42.79;100136.91;4979508;28;20133;-73
2022/08/19 09:51:23;;;;;;;11.75;6.80;;;;;;;32.25;42.16;100116.41;4963027;28;20398;-73
2022/08/19 09:53:51;;;;;;;8.65;6.53;;;;;;;31.40;41.30;100150.53;4978782;28;20046;-73
2022/08/19 09:56:21;;;;;;;8.20;6.88;;;;;;;32.18;41.10;100152.28;4976929;28;20142;-73
2022/08/19 09:58:48;;;;;;;10.63;7.25;;;;;;;33.07;41.39;100137.44;4968129;28;20064;-74
2022/08/19 10:01:25;;;;;;;10.95;6.85;;;;;;;33.04;40.57;100090.59;4957410;28;20043;-74
2022/08/19 10:03:54;;;;;;;10.07;5.53;;;;;;;33.08;39.57;100086.59;4980028;28;20050;-73
2022/08/19 10:06:22;;;;;;;14.40;6.90;;;;;;;33.49;39.02;100101.47;4978325;28;20042;-73
2022/08/19 10:08:48;;;;;;;18.05;6.47;;;;;;;33.66;39.00;100098.94;4977658;28;20042;-73
2022/08/19 10:11:15;;;;;;;11.38;7.03;;;;;;;34.04;38.92;100185.72;4980087;28;20145;-73
2022/08/19 10:13:43;;;;;;;11.18;6.38;;;;;;;32.90;37.09;100075.69;4980124;28;20073;-73
2022/08/19 10:16:14;;;;;;;11.68;6.10;;;;;;;33.06;37.64;100179.22;4977284;28;20054;-73
2022/08/19 10:18:43;;;;;;;8.48;5.97;;;;;;;32.54;37.97;100121.78;4978600;28;20042;-73
2022/08/19 10:21:13;;;;;;;16.98;6.30;;;;;;;32.99;39.16;100172.63;4963754;28;20053;-73
2022/08/19 10:23:45;;;;;;;8.32;5.93;;;;;;;33.12;37.86;100173.16;4978936;28;20046;-74
2022/08/19 10:26:14;;;;;;;12.38;6.13;;;;;;;33.11;38.53;100094.47;4978976;28;20029;-73
2022/08/19 10:28:41;;;;;;;20.60;6.80;;;;;;;32.87;39.29;100095.84;4964282;28;20042;-73
2022/08/19 10:31:10;;;;;;;10.93;6.18;;;;;;;33.40;38.79;100073.34;4977695;28;20108;-72
2022/08/19 10:33:38;;;;;;;10.90;6.45;;;;;;;34.32;37.41;100146.59;4979358;28;20566;-72
2022/08/19 10:36:09;;;;;;;9.52;6.18;;;;;;;34.18;36.40;100097.13;4977627;28;20066;-72
2022/08/19 10:38:36;;;;;;;16.48;6.40;;;;;;;34.30;37.35;100091.41;4989670;28;20058;-72
2022/08/19 10:41:16;;;;;;;10.15;6.43;;;;;;;34.65;36.78;100109.50;4980872;28;20396;-73
2022/08/19 10:43:44;;;;;;;11.10;5.95;;;;;;;34.56;35.88;100055.94;4998008;28;20077;-73
2022/08/19 10:46:15;;;;;;;7.25;5.85;;;;;;;34.77;36.51;100135.47;4997332;28;20065;-73
2022/08/19 10:48:42;;;;;;;9.93;5.65;;;;;;;33.85;36.35;100068.78;4996330;28;20057;-72
2022/08/19 10:53:55;;;;;;;11.52;5.78;;;;;;;34.64;35.60;100135.06;4996662;28;20508;-72
2022/08/19 10:59:05;;;;;;;8.45;5.53;;;;;;;33.94;35.25;100111.41;4996700;28;20104;-74
2022/08/19 11:01:33;;;;;;;9.13;6.32;;;;;;;32.67;35.91;100138.59;4996762;28;20030;-73
2022/08/19 11:04:01;;;;;;;10.45;5.55;;;;;;;33.38;36.18;100067.19;4997777;28;20819;-73
2022/08/19 11:06:27;;;;;;;14.30;6.75;;;;;;;34.06;34.99;100101.09;4979542;28;20057;-71
2022/08/19 11:08:56;;;;;;;10.30;6.55;;;;;;;34.47;35.79;100055.91;4980283;28;20050;-73
2022/08/19 11:11:22;;;;;;;8.25;5.50;;;;;;;34.56;35.21;100129.53;4980490;28;20046;-72
2022/08/19 11:13:54;;;;;;;13.32;7.22;;;;;;;33.76;38.56;100067.03;4996333;28;20105;-71
2022/08/19 11:16:24;;;;;;;9.90;5.88;;;;;;;33.64;37.92;100129.88;4995384;28;20080;-71
2022/08/19 11:18:58;;;;;;;10.30;7.40;;;;;;;33.05;37.70;100060.59;4964001;28;20523;-72
2022/08/19 11:21:27;;;;;;;9.63;6.68;;;;;;;32.27;38.57;100071.81;4998099;28;20057;-72
2022/08/19 11:23:56;;;;;;;10.45;7.30;;;;;;;32.23;38.88;100054.09;4996988;28;20072;-72
2022/08/19 11:26:23;;;;;;;10.80;6.55;;;;;;;33.53;38.72;100129.22;4971792;28;20076;-74
2022/08/19 11:28:54;;;;;;;12.30;6.53;;;;;;;33.56;38.15;100037.25;5008818;28;20034;-74
2022/08/19 11:31:22;;;;;;;10.38;5.88;;;;;;;33.75;35.24;100071.63;4980414;28;20050;-73
2022/08/19 11:33:51;;;;;;;9.73;7.47;;;;;;;34.01;35.43;100081.69;4998284;28;20077;-72
2022/08/19 11:36:17;;;;;;;9.25;6.07;;;;;;;34.36;35.95;100112.56;4999239;28;20049;-71
2022/08/19 11:38:49;;;;;;;7.00;5.53;;;;;;;33.85;35.08;100112.34;4982778;28;20050;-73
2022/08/19 11:41:18;;;;;;;10.48;5.88;;;;;;;33.97;35.16;100107.50;5000265;28;20046;-71
2022/08/19 11:43:44;;;;;;;11.35;6.60;;;;;;;33.65;36.80;100098.09;4999160;28;20072;-72
2022/08/19 11:46:12;;;;;;;12.63;6.60;;;;;;;32.60;36.57;100094.00;5002087;28;20045;-72